Time,TemperatureF,DewpointF,PressureIn,WindDirection,WindDirectionDegrees,WindSpeedMPH,WindSpeedGustMPH,Humidity,HourlyPrecipIn,Conditions,Clouds,dailyrainin,SoftwareType,DateUTC
2013-04-19 00:03:00,34.0,25.0,29.72,ENE,60,6.0,15.0,68,0.00,,,0.51,,2013-04-19 05:03:00,
2013-04-19 00:11:00,34.0,25.0,29.72,ENE,60,6.0,15.0,68,0.00,,,0.51,,2013-04-19 05:11:00,
2013-04-19 00:22:00,34.0,25.0,29.72,North,7,9.0,18.0,68,0.00,,,0.43,,2013-04-19 05:22:00,
2013-04-19 00:32:00,34.0,25.0,29.72,North,3,12.0,18.0,68,0.00,,,0.43,,2013-04-19 05:32:00,
2013-04-19 00:42:00,34.0,25.0,29.72,North,3,12.0,18.0,68,0.00,,,0.43,,2013-04-19 05:42:00,
2013-04-19 00:52:00,34.0,25.0,29.72,North,3,12.0,18.0,68,0.00,,,0.43,,2013-04-19 05:52:00,
2013-04-19 01:01:00,34.0,25.0,29.72,WNW,299,7.0,17.0,68,0.00,,,0.43,,2013-04-19 06:01:00,
2013-04-19 01:12:00,34.0,25.0,29.72,WNW,299,7.0,17.0,68,0.00,,,0.43,,2013-04-19 06:12:00,
2013-04-19 01:22:00,34.0,25.0,29.72,WNW,299,7.0,17.0,68,0.00,,,0.43,,2013-04-19 06:22:00,
2013-04-19 01:32:00,34.0,25.0,29.72,WNW,299,7.0,17.0,68,0.00,,,0.43,,2013-04-19 06:32:00,
2013-04-19 02:02:00,34.0,25.0,29.69,NNE,21,5.0,16.0,68,0.00,,,0.35,,2013-04-19 07:02:00,
2013-04-19 02:12:00,34.0,25.0,29.69,NNE,21,5.0,16.0,68,0.00,,,0.35,,2013-04-19 07:12:00,
2013-04-19 02:21:00,34.0,25.0,29.69,NNE,21,5.0,16.0,68,0.00,,,0.35,,2013-04-19 07:21:00,
2013-04-19 02:32:00,34.0,25.0,29.69,NNE,21,5.0,16.0,68,0.00,,,0.35,,2013-04-19 07:32:00,
2013-04-19 02:42:00,34.0,25.0,29.69,NNE,21,5.0,16.0,68,0.00,,,0.35,,2013-04-19 07:42:00,
2013-04-19 03:33:00,33.0,22.0,29.69,North,3,10.0,19.0,64,0.00,,,0.31,,2013-04-19 08:33:00,
2013-04-19 03:42:00,33.0,22.0,29.69,North,3,10.0,19.0,64,0.00,,,0.31,,2013-04-19 08:42:00,
2013-04-19 03:52:00,33.0,22.0,29.69,North,3,10.0,19.0,64,0.00,,,0.31,,2013-04-19 08:52:00,
2013-04-19 04:01:00,33.0,22.0,29.69,North,3,10.0,19.0,64,0.00,,,0.31,,2013-04-19 09:01:00,
2013-04-19 04:11:00,33.0,22.0,29.69,North,3,10.0,19.0,64,0.00,,,0.31,,2013-04-19 09:11:00,
2013-04-19 07:12:00,30.0,16.0,29.75,NNE,28,7.0,14.0,55,0.00,,,0.04,,2013-04-19 12:12:00,
2013-04-19 07:22:00,30.0,16.0,29.75,NNE,28,7.0,14.0,55,0.00,,,0.04,,2013-04-19 12:22:00,
2013-04-19 07:32:00,31.0,19.0,29.75,North,356,13.0,15.0,61,0.00,,,0.04,,2013-04-19 12:32:00,
2013-04-19 07:42:00,31.0,19.0,29.75,North,356,13.0,15.0,61,0.00,,,0.04,,2013-04-19 12:42:00,
2013-04-19 07:52:00,31.0,19.0,29.75,North,356,13.0,15.0,61,0.00,,,0.04,,2013-04-19 12:52:00,
2013-04-19 08:01:00,33.0,19.0,29.75,WNW,295,10.0,16.0,55,0.00,,,0.04,,2013-04-19 13:01:00,
2013-04-19 08:11:00,33.0,19.0,29.75,WNW,295,10.0,16.0,55,0.00,,,0.04,,2013-04-19 13:11:00,
2013-04-19 08:21:00,33.0,19.0,29.75,WNW,295,10.0,16.0,55,0.00,,,0.04,,2013-04-19 13:21:00,
2013-04-19 08:32:00,33.0,19.0,29.75,NNE,23,3.0,16.0,56,0.00,,,0.04,,2013-04-19 13:32:00,
2013-04-19 08:42:00,32.0,16.0,29.75,North,10,12.0,17.0,52,0.00,,,0.04,,2013-04-19 13:42:00,
2013-04-19 08:52:00,32.0,16.0,29.75,North,10,12.0,17.0,52,0.00,,,0.04,,2013-04-19 13:52:00,
2013-04-19 09:01:00,32.0,16.0,29.75,North,10,12.0,17.0,52,0.00,,,0.04,,2013-04-19 14:01:00,
2013-04-19 09:11:00,32.0,16.0,29.75,North,10,12.0,17.0,52,0.00,,,0.04,,2013-04-19 14:11:00,
2013-04-19 09:22:00,32.0,16.0,29.75,North,10,12.0,17.0,52,0.00,,,0.04,,2013-04-19 14:22:00,
2013-04-19 10:02:00,33.0,16.0,29.75,NNE,14,6.0,16.0,50,0.00,,,0.00,,2013-04-19 15:02:00,
2013-04-19 10:12:00,33.0,16.0,29.75,NNE,14,6.0,16.0,50,0.00,,,0.00,,2013-04-19 15:12:00,
2013-04-19 10:21:00,33.0,16.0,29.75,NNE,14,6.0,16.0,50,0.00,,,0.00,,2013-04-19 15:21:00,
2013-04-19 10:33:00,33.0,16.0,29.75,NNE,14,6.0,16.0,50,0.00,,,0.00,,2013-04-19 15:33:00,
2013-04-19 16:32:00,43.0,16.0,29.86,NE,43,10.0,17.0,33,0.00,,,0.00,,2013-04-19 21:32:00,
2013-04-19 16:43:00,43.0,16.0,29.86,NE,43,10.0,17.0,33,0.00,,,0.00,,2013-04-19 21:43:00,
2013-04-19 16:53:00,43.0,16.0,29.86,NE,43,10.0,17.0,33,0.00,,,0.00,,2013-04-19 21:53:00,
2013-04-19 17:02:00,43.0,16.0,29.86,NE,43,10.0,17.0,33,0.00,,,0.00,,2013-04-19 22:02:00,
2013-04-19 17:12:00,43.0,16.0,29.86,NE,43,10.0,17.0,33,0.00,,,0.00,,2013-04-19 22:12:00,